Time;durP1;ratioP1;P1;durP2;ratioP2;P2;SDS_P1;SDS_P2;PMS_P1;PMS_P2;Temp;Humidity;BMP_temperature;BMP_pressure;BME280_temperature;BME280_humidity;BME280_pressure;Samples;Min_cycle;Max_cycle;Signal;HPM_P1;HPM_P2
2021/05/26 00:00:00;;;;;;;8.63;4.13;;;;;;;;;;5056683;28;20551;-69
2021/05/26 00:02:25;;;;;;;5.27;3.67;;;;;;;;;;5056177;28;20200;-69
2021/05/26 00:04:51;;;;;;;8.63;3.63;;;;;;;;;;5061524;28;20173;-69
2021/05/26 00:07:16;;;;;;;5.20;3.83;;;;;;;;;;5061361;28;20646;-71
2021/05/26 00:09:41;;;;;;;6.83;4.00;;;;;;;;;;5062046;28;20227;-70
2021/05/26 00:12:07;;;;;;;5.90;3.20;;;;;;;;;;5071305;28;20447;-70
2021/05/26 00:14:32;;;;;;;6.93;3.93;;;;;;;;;;5059369;28;20182;-71
2021/05/26 00:16:57;;;;;;;4.87;3.73;;;;;;;;;;5059706;28;20670;-71
2021/05/26 00:19:22;;;;;;;6.60;4.50;;;;;;;;;;5060272;28;20170;-71
2021/05/26 00:21:47;;;;;;;5.23;3.80;;;;;;;;;;5058797;28;20579;-71
2021/05/26 00:24:12;;;;;;;4.17;2.50;;;;;;;;;;5057749;28;20202;-71
2021/05/26 00:26:38;;;;;;;3.97;2.83;;;;;;;;;;5064472;28;20189;-71
2021/05/26 00:29:03;;;;;;;7.60;3.33;;;;;;;;;;5057505;28;20181;-71
2021/05/26 00:31:28;;;;;;;7.77;3.67;;;;;;;;;;5058875;28;20689;-71
2021/05/26 00:33:53;;;;;;;5.57;3.47;;;;;;;;;;5064865;28;20220;-71
2021/05/26 00:36:19;;;;;;;5.13;3.57;;;;;;;;;;5052687;28;20628;-71
2021/05/26 00:38:44;;;;;;;5.03;3.43;;;;;;;;;;5057330;28;20180;-71
2021/05/26 00:41:10;;;;;;;4.90;3.07;;;;;;;;;;5059610;28;20170;-71
2021/05/26 00:43:35;;;;;;;4.90;2.70;;;;;;;;;;5054615;28;20582;-73
2021/05/26 00:46:00;;;;;;;4.43;2.83;;;;;;;;;;5069062;28;20201;-72
2021/05/26 00:48:25;;;;;;;3.73;2.50;;;;;;;;;;5058411;28;20208;-71
2021/05/26 00:50:51;;;;;;;2.50;1.97;;;;;;;;;;5063487;28;20256;-72
2021/05/26 00:53:16;;;;;;;5.97;2.33;;;;;;;;;;5060279;28;20687;-72
2021/05/26 00:55:42;;;;;;;3.87;2.10;;;;;;;;;;5056359;28;20186;-73
2021/05/26 00:58:07;;;;;;;3.43;2.30;;;;;;;;;;5054546;28;20220;-73
2021/05/26 01:00:34;;;;;;;4.40;2.43;;;;;;;;;;5060679;28;20173;-72
2021/05/26 01:02:59;;;;;;;4.07;2.37;;;;;;;;;;5059831;28;20287;-73
2021/05/26 01:05:25;;;;;;;2.50;2.30;;;;;;;;;;5064552;28;20276;-72
2021/05/26 01:07:52;;;;;;;5.13;2.30;;;;;;;;;;5063656;28;20177;-74
2021/05/26 01:10:18;;;;;;;5.00;2.00;;;;;;;;;;5059036;28;20188;-76
2021/05/26 01:12:43;;;;;;;4.93;2.70;;;;;;;;;;5053680;28;20231;-76
2021/05/26 01:15:10;;;;;;;7.03;2.57;;;;;;;;;;5053496;28;20830;-75
2021/05/26 01:17:35;;;;;;;3.93;2.57;;;;;;;;;;5062980;28;20177;-76
2021/05/26 01:20:01;;;;;;;4.83;2.50;;;;;;;;;;5063514;28;20180;-75
2021/05/26 01:22:26;;;;;;;3.80;2.30;;;;;;;;;;5056174;28;20197;-75
2021/05/26 01:24:51;;;;;;;6.83;2.37;;;;;;;;;;5061727;28;20256;-75
2021/05/26 01:27:16;;;;;;;5.03;2.77;;;;;;;;;;5057859;28;20169;-74
2021/05/26 01:29:42;;;;;;;4.33;3.00;;;;;;;;;;5059295;28;20193;-74
2021/05/26 01:32:07;;;;;;;7.20;2.97;;;;;;;;;;5060363;28;20683;-74
2021/05/26 01:34:32;;;;;;;3.13;2.67;;;;;;;;;;5061692;28;20706;-74
2021/05/26 01:36:57;;;;;;;4.73;3.53;;;;;;;;;;5063036;28;20193;-74
2021/05/26 01:39:23;;;;;;;4.67;3.00;;;;;;;;;;5060100;28;20264;-74
2021/05/26 01:41:48;;;;;;;5.20;3.10;;;;;;;;;;5063740;28;20205;-74
2021/05/26 01:44:13;;;;;;;8.17;3.87;;;;;;;;;;5056829;28;20280;-74
2021/05/26 01:46:39;;;;;;;5.70;3.97;;;;;;;;;;5062574;28;20216;-73
2021/05/26 01:49:05;;;;;;;6.20;4.83;;;;;;;;;;5063385;28;20183;-72
2021/05/26 01:51:31;;;;;;;10.60;5.17;;;;;;;;;;5059017;28;20178;-72
2021/05/26 01:53:56;;;;;;;13.00;5.87;;;;;;;;;;5059718;28;20200;-72
2021/05/26 01:56:23;;;;;;;9.00;5.67;;;;;;;;;;5062426;28;20264;-72
2021/05/26 01:58:49;;;;;;;11.73;5.20;;;;;;;;;;5052138;28;20651;-72
2021/05/26 02:01:15;;;;;;;11.43;6.00;;;;;;;;;;5050848;28;20178;-74
2021/05/26 02:03:41;;;;;;;12.73;6.30;;;;;;;;;;5049585;28;20285;-74
2021/05/26 02:06:07;;;;;;;11.67;6.43;;;;;;;;;;5052778;28;20724;-74
2021/05/26 02:08:32;;;;;;;10.67;6.37;;;;;;;;;;5053465;28;20172;-74
2021/05/26 02:13:41;;;;;;;12.17;6.53;;;;;;;;;;5059566;28;20216;-73
2021/05/26 02:16:06;;;;;;;11.93;6.60;;;;;;;;;;5061787;28;20177;-73
2021/05/26 02:18:32;;;;;;;14.10;7.13;;;;;;;;;;5052187;28;20181;-73
2021/05/26 02:20:57;;;;;;;14.17;7.23;;;;;;;;;;5059478;28;20184;-73
2021/05/26 02:23:22;;;;;;;14.50;7.33;;;;;;;;;;5062554;28;20573;-73
2021/05/26 02:25:47;;;;;;;15.03;6.50;;;;;;;;;;5055676;28;20200;-73
2021/05/26 02:28:12;;;;;;;13.80;6.63;;;;;;;;;;5052558;28;20219;-72
2021/05/26 02:30:38;;;;;;;16.57;6.43;;;;;;;;;;5061007;28;20257;-73
2021/05/26 02:33:03;;;;;;;14.50;5.33;;;;;;;;;;5059774;28;20216;-73
2021/05/26 02:35:29;;;;;;;21.27;6.07;;;;;;;;;;5055523;28;20210;-73
2021/05/26 02:37:54;;;;;;;14.23;4.87;;;;;;;;;;5065674;28;20721;-73
2021/05/26 02:40:19;;;;;;;9.53;4.27;;;;;;;;;;5052274;28;20186;-74
2021/05/26 02:42:44;;;;;;;16.80;5.73;;;;;;;;;;5059758;28;20197;-72
2021/05/26 02:45:10;;;;;;;16.60;5.43;;;;;;;;;;5056565;28;20264;-74
2021/05/26 02:47:36;;;;;;;14.87;4.97;;;;;;;;;;5061774;28;20195;-73
2021/05/26 02:50:01;;;;;;;14.00;4.43;;;;;;;;;;5066825;28;20178;-72
2021/05/26 02:52:26;;;;;;;9.40;4.23;;;;;;;;;;5059902;28;20205;-73
2021/05/26 02:54:51;;;;;;;17.70;4.63;;;;;;;;;;5063234;28;20268;-73
2021/05/26 02:57:16;;;;;;;21.83;5.10;;;;;;;;;;5057132;28;20200;-73
2021/05/26 02:59:41;;;;;;;21.93;4.87;;;;;;;;;;5056440;28;20224;-72
2021/05/26 03:02:07;;;;;;;12.60;4.17;;;;;;;;;;5055516;28;20181;-74
2021/05/26 03:04:32;;;;;;;11.93;4.10;;;;;;;;;;5055808;28;20185;-72
2021/05/26 03:06:57;;;;;;;15.67;5.73;;;;;;;;;;5060157;28;20279;-73
2021/05/26 03:09:22;;;;;;;16.53;6.20;;;;;;;;;;5067547;28;20180;-72
2021/05/26 03:11:47;;;;;;;16.93;7.10;;;;;;;;;;5065961;28;20204;-72
2021/05/26 03:14:12;;;;;;;14.43;7.70;;;;;;;;;;5062364;28;20706;-72
2021/05/26 03:16:38;;;;;;;14.30;6.53;;;;;;;;;;5056314;28;20264;-72
2021/05/26 03:19:03;;;;;;;16.50;8.10;;;;;;;;;;5062767;28;20181;-72
2021/05/26 03:21:28;;;;;;;17.03;8.13;;;;;;;;;;5068054;28;20835;-72
2021/05/26 03:23:54;;;;;;;20.67;8.10;;;;;;;;;;5061127;28;20201;-73
2021/05/26 03:26:19;;;;;;;19.07;8.43;;;;;;;;;;5063738;28;20196;-72
2021/05/26 03:28:44;;;;;;;15.63;8.20;;;;;;;;;;5060891;28;20673;-71
2021/05/26 03:31:09;;;;;;;14.50;6.90;;;;;;;;;;5062838;28;20201;-72
2021/05/26 03:33:35;;;;;;;18.43;6.47;;;;;;;;;;5059351;28;20291;-72
2021/05/26 03:36:03;;;;;;;13.53;6.10;;;;;;;;;;5061456;28;20212;-71
2021/05/26 03:38:29;;;;;;;16.93;5.87;;;;;;;;;;5068276;28;20680;-72
2021/05/26 03:40:54;;;;;;;14.03;5.67;;;;;;;;;;5060192;28;20186;-72
2021/05/26 03:43:19;;;;;;;15.40;5.50;;;;;;;;;;5060980;28;20216;-72
2021/05/26 03:45:44;;;;;;;12.97;4.97;;;;;;;;;;5058471;28;20714;-73
2021/05/26 03:48:09;;;;;;;15.30;5.13;;;;;;;;;;5063355;28;20182;-72
2021/05/26 03:50:35;;;;;;;9.20;4.50;;;;;;;;;;5062642;28;20250;-73
2021/05/26 03:53:00;;;;;;;11.60;4.50;;;;;;;;;;5060442;28;20633;-72
2021/05/26 03:55:25;;;;;;;16.67;5.53;;;;;;;;;;5058755;28;20196;-72
2021/05/26 03:57:50;;;;;;;9.27;4.33;;;;;;;;;;5061007;28;20175;-74
2021/05/26 04:00:17;;;;;;;12.97;4.70;;;;;;;;;;5058955;28;20564;-71
2021/05/26 04:02:43;;;;;;;12.63;5.13;;;;;;;;;;5062581;28;20200;-71
2021/05/26 04:05:08;;;;;;;11.73;4.70;;;;;;;;;;5055855;28;20188;-71
2021/05/26 04:07:33;;;;;;;13.07;4.67;;;;;;;;;;5066142;28;20189;-71
2021/05/26 04:09:59;;;;;;;10.10;4.40;;;;;;;;;;5060306;28;20213;-71
2021/05/26 04:12:25;;;;;;;7.57;4.57;;;;;;;;;;5063542;28;20227;-71
2021/05/26 04:14:51;;;;;;;9.00;4.63;;;;;;;;;;5059840;28;20593;-72
2021/05/26 04:17:16;;;;;;;10.27;4.83;;;;;;;;;;5064172;28;20181;-72
2021/05/26 04:19:41;;;;;;;14.63;5.93;;;;;;;;;;5057843;28;20204;-72
2021/05/26 04:22:06;;;;;;;11.80;5.83;;;;;;;;;;5063902;28;20284;-72
2021/05/26 04:24:31;;;;;;;18.20;6.63;;;;;;;;;;5060115;28;20178;-72
2021/05/26 04:26:57;;;;;;;11.13;6.07;;;;;;;;;;5059065;28;20573;-72
2021/05/26 04:29:22;;;;;;;13.27;4.97;;;;;;;;;;5057480;28;20239;-72
2021/05/26 04:31:47;;;;;;;9.97;5.47;;;;;;;;;;5055059;28;20213;-73
2021/05/26 04:34:13;;;;;;;11.57;5.60;;;;;;;;;;5063448;28;20197;-72
2021/05/26 04:36:39;;;;;;;11.60;6.43;;;;;;;;;;5060455;28;20185;-72
2021/05/26 04:39:04;;;;;;;15.30;6.70;;;;;;;;;;5064833;28;20666;-72
2021/05/26 04:41:29;;;;;;;9.40;6.40;;;;;;;;;;5052473;28;20196;-72
2021/05/26 04:43:55;;;;;;;14.83;6.43;;;;;;;;;;5059214;28;20603;-71
2021/05/26 04:46:20;;;;;;;13.63;6.77;;;;;;;;;;5067988;28;20173;-72
2021/05/26 04:48:45;;;;;;;22.00;7.20;;;;;;;;;;5060734;28;20231;-72
2021/05/26 04:51:10;;;;;;;9.93;6.53;;;;;;;;;;5063435;28;20170;-73
2021/05/26 04:53:35;;;;;;;13.90;7.00;;;;;;;;;;5055557;28;20253;-71
2021/05/26 04:56:00;;;;;;;12.43;6.97;;;;;;;;;;5059582;28;20232;-71
2021/05/26 04:58:26;;;;;;;18.43;8.00;;;;;;;;;;5067113;28;20179;-71
2021/05/26 05:00:51;;;;;;;11.10;7.60;;;;;;;;;;5052471;28;20181;-72
2021/05/26 05:03:16;;;;;;;11.77;8.03;;;;;;;;;;5060495;28;20201;-71
2021/05/26 05:05:41;;;;;;;11.37;7.20;;;;;;;;;;5053022;28;20192;-71
2021/05/26 05:08:07;;;;;;;12.03;7.03;;;;;;;;;;5060092;28;20190;-71
2021/05/26 05:10:33;;;;;;;12.33;7.70;;;;;;;;;;5056497;28;20173;-71
2021/05/26 05:12:58;;;;;;;13.27;6.20;;;;;;;;;;5057627;28;20205;-72
2021/05/26 05:15:24;;;;;;;11.27;7.27;;;;;;;;;;5058296;28;22150;-72
2021/05/26 05:17:49;;;;;;;16.23;7.63;;;;;;;;;;5055808;28;20182;-72
2021/05/26 05:20:16;;;;;;;17.17;7.80;;;;;;;;;;5059824;28;20178;-71
2021/05/26 05:22:41;;;;;;;10.53;7.63;;;;;;;;;;5058206;28;20192;-72
2021/05/26 05:25:07;;;;;;;16.20;7.23;;;;;;;;;;5060906;28;20176;-71
2021/05/26 05:27:32;;;;;;;14.67;7.23;;;;;;;;;;5054786;28;20205;-71
2021/05/26 05:29:57;;;;;;;13.77;7.93;;;;;;;;;;5056232;28;20264;-70
2021/05/26 05:32:23;;;;;;;17.33;7.60;;;;;;;;;;5057143;28;20212;-71
2021/05/26 05:34:48;;;;;;;13.10;7.83;;;;;;;;;;5061273;28;20201;-70
2021/05/26 05:37:13;;;;;;;13.70;8.70;;;;;;;;;;5064063;28;20193;-71
2021/05/26 05:39:38;;;;;;;15.20;8.83;;;;;;;;;;5064837;28;20208;-71
2021/05/26 05:42:04;;;;;;;12.60;8.30;;;;;;;;;;5051460;28;20250;-71
2021/05/26 05:44:29;;;;;;;13.00;8.20;;;;;;;;;;5059613;28;20187;-72
2021/05/26 05:46:54;;;;;;;14.13;8.67;;;;;;;;;;5058570;28;20624;-72
2021/05/26 05:49:19;;;;;;;13.63;8.80;;;;;;;;;;5058433;28;20200;-71
2021/05/26 05:51:44;;;;;;;18.40;9.80;;;;;;;;;;5058836;28;20180;-71
2021/05/26 05:54:10;;;;;;;14.90;9.40;;;;;;;;;;5062045;28;20623;-70
2021/05/26 05:56:35;;;;;;;16.67;9.40;;;;;;;;;;5063445;28;20169;-70
2021/05/26 05:59:00;;;;;;;14.73;9.37;;;;;;;;;;5057453;28;20268;-71
2021/05/26 06:01:25;;;;;;;15.00;9.93;;;;;;;;;;5064115;28;20184;-71
2021/05/26 06:03:50;;;;;;;9.50;8.20;;;;;;;;;;5054892;28;20204;-71
2021/05/26 06:06:16;;;;;;;16.33;9.43;;;;;;;;;;5057087;28;20654;-70
2021/05/26 06:08:41;;;;;;;14.37;9.37;;;;;;;;;;5055364;28;20174;-72
2021/05/26 06:11:07;;;;;;;13.33;9.77;;;;;;;;;;5053972;28;20178;-70
2021/05/26 06:13:33;;;;;;;17.07;9.80;;;;;;;;;;5058404;28;20217;-72
2021/05/26 06:15:58;;;;;;;12.37;9.30;;;;;;;;;;5057566;28;20550;-70
2021/05/26 06:18:23;;;;;;;15.43;9.17;;;;;;;;;;5058557;28;20176;-71
2021/05/26 06:20:49;;;;;;;12.33;8.67;;;;;;;;;;5048074;28;20177;-71
2021/05/26 06:23:14;;;;;;;14.13;9.13;;;;;;;;;;5061696;28;20198;-71
2021/05/26 06:25:39;;;;;;;15.30;9.10;;;;;;;;;;5059120;28;20594;-70
2021/05/26 06:28:05;;;;;;;13.67;9.23;;;;;;;;;;5057181;28;20186;-71
2021/05/26 06:30:30;;;;;;;15.23;9.90;;;;;;;;;;5061794;28;20181;-71
2021/05/26 06:32:55;;;;;;;16.50;11.33;;;;;;;;;;5055607;28;20197;-71
2021/05/26 06:35:20;;;;;;;11.57;9.00;;;;;;;;;;5062048;28;20561;-72
2021/05/26 06:37:45;;;;;;;12.37;9.43;;;;;;;;;;5062608;28;20221;-73
2021/05/26 06:40:11;;;;;;;14.17;8.67;;;;;;;;;;5057728;28;20185;-71
2021/05/26 06:42:36;;;;;;;14.97;9.27;;;;;;;;;;5057956;28;20632;-71
2021/05/26 06:45:01;;;;;;;14.77;9.00;;;;;;;;;;5059276;28;20196;-70
2021/05/26 06:47:27;;;;;;;12.90;9.53;;;;;;;;;;5056023;28;20601;-71
2021/05/26 06:49:52;;;;;;;10.63;8.90;;;;;;;;;;5061733;28;20203;-71
2021/05/26 06:52:17;;;;;;;13.97;9.73;;;;;;;;;;5054972;28;20208;-70
2021/05/26 06:54:42;;;;;;;10.97;8.60;;;;;;;;;;5064148;28;20178;-71
2021/05/26 06:57:07;;;;;;;14.05;9.00;;;;;;;;;;5059153;28;20183;-71
2021/05/26 06:59:33;;;;;;;12.87;7.97;;;;;;;;;;5057569;28;20174;-70
2021/05/26 07:01:58;;;;;;;15.38;9.32;;;;;;;;;;5053884;28;20716;-70
2021/05/26 07:04:24;;;;;;;15.07;7.97;;;;;;;;;;5055365;28;20179;-71
2021/05/26 07:06:49;;;;;;;11.17;8.17;;;;;;;;;;5061858;28;20221;-70
2021/05/26 07:09:14;;;;;;;11.50;7.60;;;;;;;;;;5055885;28;20177;-71
2021/05/26 07:11:39;;;;;;;13.30;7.73;;;;;;;;;;5063911;28;20666;-71
2021/05/26 07:14:05;;;;;;;14.27;7.63;;;;;;;;;;5048759;28;20201;-69
2021/05/26 07:16:30;;;;;;;11.20;7.17;;;;;;;;;;5049502;28;20185;-69
2021/05/26 07:18:59;;;;;;;10.35;7.38;;;;;;;;;;5054097;28;20181;-71
2021/05/26 07:21:25;;;;;;;9.67;7.30;;;;;;;;;;5051975;28;20177;-69
2021/05/26 07:23:50;;;;;;;11.63;7.75;;;;;;;;;;5047949;28;20587;-70
2021/05/26 07:26:16;;;;;;;10.82;6.95;;;;;;;;;;5047956;28;20192;-69
2021/05/26 07:28:41;;;;;;;14.88;7.68;;;;;;;;;;5051600;28;20177;-70
2021/05/26 07:31:07;;;;;;;12.40;6.50;;;;;;;;;;5054289;28;20180;-73
2021/05/26 07:33:32;;;;;;;15.37;8.00;;;;;;;;;;5060971;28;20216;-70
2021/05/26 07:35:57;;;;;;;9.40;6.77;;;;;;;;;;5058647;28;20188;-69
2021/05/26 07:38:22;;;;;;;9.82;6.65;;;;;;;;;;5052988;28;20220;-70
2021/05/26 07:40:48;;;;;;;12.73;7.70;;;;;;;;;;5050952;28;20607;-70
2021/05/26 07:43:13;;;;;;;7.82;6.35;;;;;;;;;;5056227;28;20216;-70
2021/05/26 07:45:38;;;;;;;11.57;6.88;;;;;;;;;;5055601;28;20189;-70
2021/05/26 07:48:04;;;;;;;12.77;6.75;;;;;;;;;;5064150;28;20653;-70
2021/05/26 07:50:34;;;;;;;10.73;6.22;;;;;;;;;;5061511;28;20184;-70
2021/05/26 07:53:00;;;;;;;12.50;7.28;;;;;;;;;;5063335;28;20214;-70
2021/05/26 07:55:25;;;;;;;8.35;6.45;;;;;;;;;;5058412;28;20173;-69
2021/05/26 07:57:50;;;;;;;10.35;7.35;;;;;;;;;;5054062;28;20617;-69
2021/05/26 08:00:15;;;;;;;8.07;7.30;;;;;;;;;;5054724;28;20182;-69
2021/05/26 08:02:41;;;;;;;9.07;6.63;;;;;;;;;;5058838;28;20189;-70
2021/05/26 08:05:06;;;;;;;9.20;7.15;;;;;;;;;;5048770;28;20658;-69
2021/05/26 08:07:31;;;;;;;9.52;6.00;;;;;;;;;;5041943;28;20210;-70
2021/05/26 08:09:56;;;;;;;10.45;6.30;;;;;;;;;;5042971;28;20192;-69
2021/05/26 08:12:22;;;;;;;8.95;6.82;;;;;;;;;;5040382;28;20657;-69
2021/05/26 08:14:47;;;;;;;10.07;6.35;;;;;;;;;;5040058;28;20191;-69
2021/05/26 08:17:12;;;;;;;10.68;6.22;;;;;;;;;;5041395;28;20177;-70
2021/05/26 08:19:37;;;;;;;8.83;6.03;;;;;;;;;;5041402;28;20643;-69
2021/05/26 08:22:02;;;;;;;9.48;5.97;;;;;;;;;;5041499;28;20435;-70
2021/05/26 08:24:27;;;;;;;13.65;6.30;;;;;;;;;;5042689;28;20185;-70
2021/05/26 08:26:53;;;;;;;9.40;5.13;;;;;;;;;;5040029;28;20188;-69
2021/05/26 08:29:19;;;;;;;8.90;5.07;;;;;;;;;;5040764;28;20208;-70
2021/05/26 08:31:44;;;;;;;10.05;5.90;;;;;;;;;;5048349;28;21931;-69
2021/05/26 08:34:10;;;;;;;10.52;6.22;;;;;;;;;;5042180;28;20226;-70
2021/05/26 08:36:35;;;;;;;7.97;5.25;;;;;;;;;;5041467;28;20197;-69
2021/05/26 08:39:00;;;;;;;7.10;5.40;;;;;;;;;;5040661;28;20170;-69
2021/05/26 08:41:26;;;;;;;8.10;5.95;;;;;;;;;;5048069;28;20674;-72
2021/05/26 08:43:52;;;;;;;8.88;5.43;;;;;;;;;;5042028;28;20201;-71
2021/05/26 08:46:17;;;;;;;4.97;2.15;;;;;;;;;;5045774;28;20188;-72
2021/05/26 08:48:44;;;;;;;4.60;2.75;;;;;;;;;;5044618;28;20177;-74
2021/05/26 08:51:14;;;;;;;5.95;2.90;;;;;;;;;;5041739;28;20268;-74
2021/05/26 08:53:39;;;;;;;9.23;2.60;;;;;;;;;;5041621;28;20220;-74
2021/05/26 08:56:05;;;;;;;4.37;2.47;;;;;;;;;;5041391;28;20582;-73
2021/05/26 08:58:36;;;;;;;6.37;2.50;;;;;;;;;;5042368;28;20170;-73
2021/05/26 09:01:01;;;;;;;3.50;2.27;;;;;;;;;;5044755;28;20339;-73
2021/05/26 09:03:29;;;;;;;5.23;3.10;;;;;;;;;;5040118;28;20671;-72
2021/05/26 09:05:54;;;;;;;5.80;3.40;;;;;;;;;;5044627;28;20379;-73
2021/05/26 09:08:23;;;;;;;5.20;3.60;;;;;;;;;;5038848;28;20277;-73
2021/05/26 09:10:54;;;;;;;5.07;3.50;;;;;;;;;;5048105;28;20178;-73
2021/05/26 09:13:25;;;;;;;5.27;3.40;;;;;;;;;;5045900;28;20628;-72
2021/05/26 09:15:51;;;;;;;5.83;3.60;;;;;;;;;;5045143;28;20205;-73
2021/05/26 09:18:16;;;;;;;6.17;3.37;;;;;;;;;;5045421;28;20608;-72
2021/05/26 09:20:44;;;;;;;4.87;3.10;;;;;;;;;;5040428;28;20177;-72
2021/05/26 09:23:16;;;;;;;8.00;4.80;;;;;;;;;;5038731;28;20212;-72
2021/05/26 09:25:44;;;;;;;4.37;3.97;;;;;;;;;;5040279;28;20184;-72
2021/05/26 09:28:13;;;;;;;7.73;3.90;;;;;;;;;;5041529;28;20850;-72
2021/05/26 09:30:38;;;;;;;5.83;4.20;;;;;;;;;;5044450;28;20267;-72
2021/05/26 09:33:21;;;;;;;6.63;4.68;;;;;;;;;;5043649;28;20334;-72
2021/05/26 09:35:46;;;;;;;6.50;4.10;;;;;;;;;;5043612;28;20264;-72
2021/05/26 09:38:11;;;;;;;9.18;4.05;;;;;;;;;;5043117;28;20239;-71
2021/05/26 09:40:38;;;;;;;7.75;3.75;;;;;;;;;;5044766;28;20227;-71
2021/05/26 09:43:03;;;;;;;5.55;4.63;;;;;;;;;;5043311;28;20201;-71
2021/05/26 09:45:30;;;;;;;5.40;2.70;;;;;;;;;;5049215;28;20184;-71
2021/05/26 09:47:57;;;;;;;8.55;3.80;;;;;;;;;;5046928;28;20203;-71
2021/05/26 09:50:22;;;;;;;6.28;3.20;;;;;;;;;;5043641;28;20199;-71
2021/05/26 09:52:54;;;;;;;4.15;2.83;;;;;;;;;;5040336;28;20209;-70
2021/05/26 09:55:21;;;;;;;4.72;2.42;;;;;;;;;;5042056;28;20679;-71
2021/05/26 09:57:49;;;;;;;5.95;2.40;;;;;;;;;;5041357;28;20181;-70
2021/05/26 10:00:16;;;;;;;5.40;2.50;;;;;;;;;;5043934;28;20177;-71
2021/05/26 10:02:41;;;;;;;5.28;2.20;;;;;;;;;;5040545;28;20201;-70
2021/05/26 10:05:06;;;;;;;4.40;1.90;;;;;;;;;;5042697;28;20328;-71
2021/05/26 10:07:32;;;;;;;3.78;1.52;;;;;;;;;;5051489;28;21026;-70
2021/05/26 10:09:57;;;;;;;4.18;1.70;;;;;;;;;;5045502;28;20205;-70
2021/05/26 10:12:22;;;;;;;4.65;2.03;;;;;;;;;;5045123;28;20212;-71
2021/05/26 10:14:48;;;;;;;3.67;1.90;;;;;;;;;;5040217;28;20274;-70
2021/05/26 10:17:19;;;;;;;5.47;1.80;;;;;;;;;;5045633;28;20243;-72
2021/05/26 10:19:44;;;;;;;4.25;1.80;;;;;;;;;;5041214;28;20454;-71
2021/05/26 10:22:10;;;;;;;3.03;1.80;;;;;;;;;;5044416;28;20204;-71
2021/05/26 10:24:35;;;;;;;3.78;2.20;;;;;;;;;;5039846;28;20694;-70
2021/05/26 10:27:01;;;;;;;3.00;1.90;;;;;;;;;;5044136;28;20185;-70
2021/05/26 10:29:29;;;;;;;1.95;1.60;;;;;;;;;;5042008;28;20180;-70
2021/05/26 10:31:58;;;;;;;2.85;1.30;;;;;;;;;;5041517;28;20180;-70
2021/05/26 10:34:42;;;;;;;3.40;1.40;;;;;;;;;;5041226;28;20394;-70
2021/05/26 10:37:07;;;;;;;2.40;1.70;;;;;;;;;;5042547;28;20204;-69
2021/05/26 10:39:32;;;;;;;5.43;2.03;;;;;;;;;;5040802;28;20182;-70
2021/05/26 10:41:57;;;;;;;4.28;2.13;;;;;;;;;;5043980;28;20166;-70
2021/05/26 10:44:42;;;;;;;5.78;3.25;;;;;;;;;;5039713;28;20223;-69
2021/05/26 10:47:26;;;;;;;5.43;2.33;;;;;;;;;;5044287;28;20212;-69
2021/05/26 10:49:51;;;;;;;2.85;2.38;;;;;;;;;;5039613;28;20185;-70
2021/05/26 10:52:17;;;;;;;2.60;2.40;;;;;;;;;;5041322;28;20562;-69
2021/05/26 10:54:42;;;;;;;2.17;1.73;;;;;;;;;;5038182;28;20358;-70
2021/05/26 10:57:08;;;;;;;2.50;2.30;;;;;;;;;;5040043;28;22002;-70
2021/05/26 10:59:33;;;;;;;3.45;2.33;;;;;;;;;;5037614;28;20178;-70
2021/05/26 11:02:05;;;;;;;3.28;2.63;;;;;;;;;;5041947;28;20181;-70
2021/05/26 11:04:31;;;;;;;3.92;2.78;;;;;;;;;;5040782;28;20185;-70
2021/05/26 11:07:14;;;;;;;3.15;2.13;;;;;;;;;;5052283;28;20223;-70
2021/05/26 11:09:52;;;;;;;4.07;2.45;;;;;;;;;;5042323;28;22078;-70
2021/05/26 11:12:17;;;;;;;3.45;2.70;;;;;;;;;;5049738;28;20594;-73
2021/05/26 11:14:43;;;;;;;2.50;2.30;;;;;;;;;;5049998;28;20264;-71
2021/05/26 11:17:08;;;;;;;3.03;1.98;;;;;;;;;;5052236;28;20185;-69
2021/05/26 11:19:33;;;;;;;2.60;1.20;;;;;;;;;;5042704;28;20263;-71
2021/05/26 11:22:00;;;;;;;1.55;1.33;;;;;;;;;;5044054;28;20297;-71
2021/05/26 11:24:26;;;;;;;1.75;0.98;;;;;;;;;;5042720;28;20195;-70
2021/05/26 11:26:52;;;;;;;1.00;0.90;;;;;;;;;;5040781;28;20268;-70
2021/05/26 11:29:27;;;;;;;1.10;0.90;;;;;;;;;;5044371;28;20189;-71
2021/05/26 11:32:04;;;;;;;0.75;0.75;;;;;;;;;;5047890;28;20174;-70
2021/05/26 11:34:30;;;;;;;3.08;0.73;;;;;;;;;;5048948;28;20181;-70
2021/05/26 11:36:55;;;;;;;1.80;0.60;;;;;;;;;;5045449;28;20193;-70
2021/05/26 11:39:29;;;;;;;1.13;0.73;;;;;;;;;;5041852;28;20865;-70
2021/05/26 11:42:17;;;;;;;0.77;0.60;;;;;;;;;;5049466;28;22559;-71
2021/05/26 11:44:52;;;;;;;1.33;0.55;;;;;;;;;;5043792;28;20230;-70
2021/05/26 11:47:36;;;;;;;0.70;0.47;;;;;;;;;;5048448;28;20690;-71
2021/05/26 11:50:14;;;;;;;0.40;0.40;;;;;;;;;;5046469;28;20185;-70
2021/05/26 11:52:40;;;;;;;1.38;0.90;;;;;;;;;;5042728;28;20249;-71
2021/05/26 11:55:06;;;;;;;1.55;0.50;;;;;;;;;;5043330;28;20189;-70
2021/05/26 11:57:32;;;;;;;0.65;0.40;;;;;;;;;;5041901;28;20176;-70
2021/05/26 11:59:57;;;;;;;0.90;0.47;;;;;;;;;;5043081;28;20200;-70
2021/05/26 12:02:23;;;;;;;2.58;0.50;;;;;;;;;;5041113;28;20210;-70
2021/05/26 12:04:48;;;;;;;1.38;0.50;;;;;;;;;;5045561;28;20205;-70
2021/05/26 12:07:21;;;;;;;2.50;0.52;;;;;;;;;;5050199;28;20558;-70
2021/05/26 12:09:52;;;;;;;0.90;0.70;;;;;;;;;;5045937;28;20182;-71
2021/05/26 12:12:17;;;;;;;2.38;0.60;;;;;;;;;;5066596;28;20217;-71
2021/05/26 12:14:43;;;;;;;2.17;0.60;;;;;;;;;;5069027;28;20548;-70
2021/05/26 12:17:09;;;;;;;1.88;0.90;;;;;;;;;;5057122;28;20307;-70
2021/05/26 12:19:35;;;;;;;3.60;0.98;;;;;;;;;;5066199;28;20668;-70
2021/05/26 12:22:17;;;;;;;3.38;1.25;;;;;;;;;;5058306;28;20260;-69
2021/05/26 12:24:48;;;;;;;2.58;1.40;;;;;;;;;;5063784;28;20176;-71
2021/05/26 12:27:28;;;;;;;3.25;1.60;;;;;;;;;;5062841;28;20192;-70
2021/05/26 12:29:53;;;;;;;2.78;1.42;;;;;;;;;;5060078;28;20226;-70
2021/05/26 12:32:25;;;;;;;3.28;1.55;;;;;;;;;;5061646;28;20212;-71
2021/05/26 12:34:56;;;;;;;2.35;1.60;;;;;;;;;;5057365;28;20180;-71
2021/05/26 12:37:36;;;;;;;2.63;1.70;;;;;;;;;;5061462;28;20199;-70
2021/05/26 12:40:02;;;;;;;2.33;1.40;;;;;;;;;;5052380;28;20203;-69
2021/05/26 12:42:33;;;;;;;3.80;1.42;;;;;;;;;;5061340;28;20204;-71
2021/05/26 12:45:17;;;;;;;1.67;1.27;;;;;;;;;;5061161;28;20706;-71
2021/05/26 12:47:42;;;;;;;3.05;1.88;;;;;;;;;;5065383;28;20202;-70
2021/05/26 12:50:12;;;;;;;3.45;1.60;;;;;;;;;;5064031;28;20263;-71
2021/05/26 12:52:37;;;;;;;6.43;1.88;;;;;;;;;;5062886;28;20422;-70
2021/05/26 12:55:06;;;;;;;3.88;1.58;;;;;;;;;;5056658;28;20317;-70
2021/05/26 12:57:32;;;;;;;3.40;1.95;;;;;;;;;;5041655;28;20174;-73
2021/05/26 12:59:59;;;;;;;5.22;2.30;;;;;;;;;;5042302;28;20606;-70
2021/05/26 13:02:27;;;;;;;3.38;1.27;;;;;;;;;;5041029;28;20205;-70
2021/05/26 13:04:52;;;;;;;3.50;1.45;;;;;;;;;;5046984;28;20220;-70
2021/05/26 13:07:24;;;;;;;2.08;1.42;;;;;;;;;;5040811;28;21259;-70
2021/05/26 13:09:49;;;;;;;8.23;2.58;;;;;;;;;;5039796;28;20196;-71
2021/05/26 13:12:24;;;;;;;4.80;1.35;;;;;;;;;;5048449;28;20213;-69
2021/05/26 13:14:50;;;;;;;2.80;1.65;;;;;;;;;;5041888;28;20177;-70
2021/05/26 13:17:15;;;;;;;5.40;1.65;;;;;;;;;;5046668;28;20909;-71
2021/05/26 13:19:40;;;;;;;2.50;1.55;;;;;;;;;;5044009;28;20205;-69
2021/05/26 13:22:05;;;;;;;4.55;1.13;;;;;;;;;;5040072;28;20696;-71
2021/05/26 13:24:30;;;;;;;4.60;1.37;;;;;;;;;;5043722;28;20189;-71
2021/05/26 13:26:56;;;;;;;3.00;1.70;;;;;;;;;;5041115;28;20517;-69
2021/05/26 13:29:21;;;;;;;3.38;1.67;;;;;;;;;;5045294;28;20414;-70
2021/05/26 13:31:47;;;;;;;2.30;1.40;;;;;;;;;;5048261;28;20262;-70
2021/05/26 13:34:12;;;;;;;4.07;1.53;;;;;;;;;;5042769;28;21350;-69
2021/05/26 13:36:38;;;;;;;2.65;1.55;;;;;;;;;;5046105;28;20441;-70
2021/05/26 13:39:03;;;;;;;2.45;1.20;;;;;;;;;;5044459;28;20174;-69
2021/05/26 13:41:28;;;;;;;4.40;1.45;;;;;;;;;;5043206;28;20245;-69
2021/05/26 13:43:53;;;;;;;2.30;1.45;;;;;;;;;;5041174;28;20538;-69
2021/05/26 13:46:21;;;;;;;4.00;1.90;;;;;;;;;;5044244;28;20247;-70
2021/05/26 13:48:48;;;;;;;6.18;1.88;;;;;;;;;;5042507;28;20196;-71
2021/05/26 13:51:15;;;;;;;1.95;1.63;;;;;;;;;;5040305;28;20205;-70
2021/05/26 13:53:40;;;;;;;3.83;1.40;;;;;;;;;;5041207;28;20212;-69
2021/05/26 13:56:05;;;;;;;9.75;2.28;;;;;;;;;;5040018;28;20182;-71
2021/05/26 13:58:31;;;;;;;3.00;1.42;;;;;;;;;;5042099;28;20170;-69
2021/05/26 14:00:56;;;;;;;5.05;1.90;;;;;;;;;;5051164;28;20174;-72
2021/05/26 14:03:21;;;;;;;4.90;1.58;;;;;;;;;;5042701;28;20215;-69
2021/05/26 14:05:46;;;;;;;5.60;1.70;;;;;;;;;;5040286;28;20178;-70
2021/05/26 14:08:12;;;;;;;3.92;2.47;;;;;;;;;;5048194;28;20539;-70
2021/05/26 14:10:37;;;;;;;3.78;1.80;;;;;;;;;;5059046;28;20269;-70
2021/05/26 14:13:03;;;;;;;3.03;1.25;;;;;;;;;;5041259;28;20216;-70
2021/05/26 14:15:32;;;;;;;2.95;1.70;;;;;;;;;;5041758;28;20647;-70
2021/05/26 14:18:00;;;;;;;2.83;2.17;;;;;;;;;;5049183;28;20177;-71
2021/05/26 14:20:26;;;;;;;6.50;2.40;;;;;;;;;;5040381;28;20723;-70
2021/05/26 14:22:53;;;;;;;2.78;1.70;;;;;;;;;;5055798;28;20283;-70
2021/05/26 14:25:18;;;;;;;4.93;1.80;;;;;;;;;;5060285;28;20569;-71
2021/05/26 14:27:47;;;;;;;3.85;1.70;;;;;;;;;;5041951;28;20200;-70
2021/05/26 14:30:12;;;;;;;6.25;1.85;;;;;;;;;;5041273;28;20188;-71
2021/05/26 14:32:37;;;;;;;3.03;1.50;;;;;;;;;;5043590;28;20209;-71
2021/05/26 14:35:03;;;;;;;2.30;1.55;;;;;;;;;;5040387;28;20252;-70